Time;durP1;ratioP1;P1;durP2;ratioP2;P2;SDS_P1;SDS_P2;PMS_P1;PMS_P2;Temp;Humidity;BMP_temperature;BMP_pressure;BME280_temperature;BME280_humidity;BME280_pressure;Samples;Min_cycle;Max_cycle;Signal;HPM_P1;HPM_P2
2023/01/13 00:00:52;;;;;;;0.00;0.00;;;18.10;80.80;;;;;;5012789;28;45744;-73
2023/01/13 00:03:19;;;;;;;0.20;0.10;;;18.10;80.60;;;;;;5005089;28;45306;-73
2023/01/13 00:05:46;;;;;;;0.17;0.08;;;18.10;80.60;;;;;;5012745;28;45515;-73
2023/01/13 00:08:13;;;;;;;0.25;0.00;;;18.10;80.70;;;;;;5012261;28;45410;-73
2023/01/13 00:10:39;;;;;;;0.40;0.10;;;18.10;80.50;;;;;;5005851;28;46404;-73
2023/01/13 00:13:06;;;;;;;0.00;0.00;;;18.10;80.70;;;;;;5004576;28;45357;-73
2023/01/13 00:15:33;;;;;;;0.32;0.17;;;18.10;80.50;;;;;;5004675;28;45329;-73
2023/01/13 00:18:01;;;;;;;0.05;0.05;;;18.10;80.50;;;;;;5004977;28;45422;-73
2023/01/13 00:20:28;;;;;;;0.38;0.10;;;18.10;80.30;;;;;;5012280;28;46277;-73
2023/01/13 00:22:55;;;;;;;0.15;0.10;;;18.10;80.40;;;;;;5008835;28;45361;-74
2023/01/13 00:25:22;;;;;;;0.28;0.00;;;18.10;80.20;;;;;;5023967;28;45382;-73
2023/01/13 00:27:49;;;;;;;0.60;0.20;;;18.10;80.30;;;;;;4985199;28;45253;-73
2023/01/13 00:30:16;;;;;;;0.38;0.20;;;18.10;80.30;;;;;;5000222;28;46888;-73
2023/01/13 00:32:43;;;;;;;0.30;0.10;;;18.10;80.10;;;;;;5008944;28;45358;-74
2023/01/13 00:35:11;;;;;;;0.30;0.10;;;18.10;80.10;;;;;;5004677;28;45284;-73
2023/01/13 00:37:39;;;;;;;0.25;0.10;;;18.10;80.00;;;;;;5004288;28;45549;-73
2023/01/13 00:40:08;;;;;;;0.38;0.20;;;18.10;79.90;;;;;;5004259;28;47894;-73
2023/01/13 00:45:19;;;;;;;0.13;0.10;;;18.10;80.00;;;;;;4994942;28;45375;-74
2023/01/13 00:47:45;;;;;;;0.17;0.10;;;18.20;79.70;;;;;;5004740;28;45477;-73
2023/01/13 00:50:14;;;;;;;1.08;0.10;;;18.10;79.70;;;;;;5017220;28;45408;-73
2023/01/13 00:52:40;;;;;;;0.20;0.10;;;18.10;79.80;;;;;;5005094;28;45250;-73
2023/01/13 00:55:08;;;;;;;0.30;0.10;;;18.10;79.50;;;;;;5004023;28;45234;-74
2023/01/13 00:57:34;;;;;;;0.25;0.10;;;18.20;79.40;;;;;;5005899;28;45372;-73
2023/01/13 01:00:01;;;;;;;0.30;0.30;;;18.10;79.20;;;;;;5015575;28;46626;-73
2023/01/13 01:02:28;;;;;;;0.90;0.28;;;18.10;79.00;;;;;;5006668;28;45359;-73
2023/01/13 01:04:55;;;;;;;0.00;0.00;;;18.10;79.00;;;;;;5004068;28;45349;-73
2023/01/13 01:07:23;;;;;;;1.02;0.20;;;18.10;78.90;;;;;;5004318;28;45287;-73
2023/01/13 01:09:50;;;;;;;0.08;0.08;;;18.10;78.90;;;;;;4996087;28;45687;-73
2023/01/13 01:12:17;;;;;;;0.10;0.10;;;18.10;78.90;;;;;;5004263;28;45353;-73
2023/01/13 01:14:43;;;;;;;1.05;0.20;;;18.10;78.90;;;;;;5006517;28;45235;-73
2023/01/13 01:17:10;;;;;;;0.17;0.17;;;18.10;78.60;;;;;;5017386;28;45479;-73
2023/01/13 01:19:37;;;;;;;0.30;0.10;;;18.10;79.00;;;;;;5011987;28;47318;-73
2023/01/13 01:22:04;;;;;;;0.08;0.08;;;18.10;78.50;;;;;;5003731;28;45486;-73
2023/01/13 01:24:32;;;;;;;0.60;0.20;;;18.10;78.40;;;;;;5004150;28;45359;-73
2023/01/13 01:26:59;;;;;;;0.20;0.15;;;18.10;78.50;;;;;;5004018;28;45564;-72
2023/01/13 01:29:26;;;;;;;0.25;0.10;;;18.10;78.50;;;;;;5020388;28;48503;-73
2023/01/13 01:31:53;;;;;;;0.55;0.15;;;18.10;78.70;;;;;;5011330;28;45499;-73
2023/01/13 01:34:20;;;;;;;1.17;0.30;;;18.10;78.70;;;;;;5003435;28;45326;-73
2023/01/13 01:36:46;;;;;;;0.50;0.10;;;18.10;78.70;;;;;;5011662;28;45237;-73
2023/01/13 01:39:13;;;;;;;0.70;0.20;;;18.10;78.70;;;;;;5003827;28;45409;-73
2023/01/13 01:43:57;;;;;;;0.47;0.20;;;18.10;78.70;;;;;;5003493;28;45353;-73
2023/01/13 01:44:59;;;;;;;1.25;0.20;;;18.10;78.70;;;;;;5011023;28;45327;-73
2023/01/13 01:47:27;;;;;;;0.10;0.10;;;18.10;78.30;;;;;;5003835;28;45445;-73
2023/01/13 01:49:56;;;;;;;0.38;0.20;;;18.10;78.40;;;;;;5008030;28;47005;-73
2023/01/13 01:52:28;;;;;;;0.40;0.20;;;18.10;78.30;;;;;;5023116;28;45187;-73
2023/01/13 01:55:00;;;;;;;0.28;0.03;;;18.10;78.00;;;;;;5001142;28;45306;-73
2023/01/13 01:57:31;;;;;;;0.57;0.20;;;18.10;77.90;;;;;;5007963;28;45420;-73
2023/01/13 02:00:00;;;;;;;1.23;0.20;;;18.10;77.30;;;;;;5012375;28;46280;-73
2023/01/13 02:02:27;;;;;;;2.20;0.40;;;18.10;77.40;;;;;;5006481;28;45228;-73
2023/01/13 02:04:55;;;;;;;0.30;0.10;;;18.10;76.80;;;;;;5006539;28;45295;-73
2023/01/13 02:07:26;;;;;;;1.02;0.30;;;18.10;77.20;;;;;;5006641;28;45313;-73
2023/01/13 02:09:55;;;;;;;0.10;0.10;;;18.10;77.20;;;;;;5006231;28;46760;-74
2023/01/13 02:12:31;;;;;;;0.80;0.20;;;18.00;76.80;;;;;;5006570;28;45420;-73
2023/01/13 02:15:03;;;;;;;1.60;0.25;;;18.00;76.60;;;;;;4998710;28;45389;-73
2023/01/13 02:17:52;;;;;;;0.63;0.30;;;18.00;76.50;;;;;;5006257;28;45402;-73
2023/01/13 02:20:57;;;;;;;0.20;0.10;;;18.00;76.50;;;;;;5003618;28;46096;-73
2023/01/13 02:27:03;;;;;;;0.75;0.28;;;18.00;76.50;;;;;;5003464;28;45391;-73
2023/01/13 02:32:56;;;;;;;1.83;0.40;;;18.10;76.60;;;;;;5003364;28;45739;-73
2023/01/13 02:35:27;;;;;;;0.55;0.08;;;18.10;76.60;;;;;;5006122;28;45391;-73
2023/01/13 02:37:56;;;;;;;0.75;0.10;;;18.10;76.60;;;;;;5003590;28;45439;-72
2023/01/13 02:40:27;;;;;;;0.40;0.10;;;18.10;76.60;;;;;;5009478;28;45452;-75
2023/01/13 02:45:50;;;;;;;0.77;0.30;;;18.10;76.60;;;;;;5009138;28;45345;-74
2023/01/13 02:48:20;;;;;;;1.17;0.22;;;18.10;76.60;;;;;;5018714;28;45325;-73
2023/01/13 02:50:51;;;;;;;0.63;0.20;;;18.10;76.60;;;;;;5006238;28;45341;-73
2023/01/13 02:53:22;;;;;;;1.40;0.43;;;18.00;76.50;;;;;;5005541;28;48528;-73
2023/01/13 02:55:54;;;;;;;0.70;0.10;;;18.10;76.30;;;;;;4995034;28;45428;-73
2023/01/13 02:58:25;;;;;;;1.20;0.40;;;18.00;76.00;;;;;;5006334;28;45412;-73
2023/01/13 03:00:53;;;;;;;0.85;0.30;;;18.10;76.50;;;;;;5001235;28;45628;-73
2023/01/13 03:03:21;;;;;;;0.75;0.32;;;18.00;76.10;;;;;;5005699;28;46847;-73
2023/01/13 03:05:51;;;;;;;0.55;0.20;;;18.00;76.40;;;;;;5004818;28;45383;-73
2023/01/13 03:08:32;;;;;;;4.03;0.65;;;18.00;76.10;;;;;;5013064;28;45267;-73
2023/01/13 03:11:03;;;;;;;0.68;0.30;;;18.00;76.00;;;;;;5006170;28;45438;-73
2023/01/13 03:14:03;;;;;;;0.80;0.30;;;18.00;76.00;;;;;;5002429;28;45358;-73
2023/01/13 03:16:40;;;;;;;2.28;0.52;;;18.00;76.50;;;;;;4954833;28;45313;-73
2023/01/13 03:19:26;;;;;;;0.47;0.20;;;18.00;76.20;;;;;;5010950;28;45258;-74
2023/01/13 03:21:57;;;;;;;1.65;0.30;;;18.00;75.90;;;;;;5012302;28;45265;-73
2023/01/13 03:24:30;;;;;;;1.45;0.40;;;18.00;76.50;;;;;;5010501;28;48151;-74
2023/01/13 03:27:02;;;;;;;0.35;0.20;;;18.00;76.50;;;;;;5005669;28;45308;-72
2023/01/13 03:29:36;;;;;;;0.45;0.20;;;18.10;76.60;;;;;;5005387;28;45324;-73
2023/01/13 03:32:08;;;;;;;0.55;0.20;;;18.00;76.50;;;;;;5005237;28;45504;-73
2023/01/13 03:34:42;;;;;;;0.30;0.17;;;18.10;76.60;;;;;;5006469;28;46996;-73
2023/01/13 03:37:11;;;;;;;1.00;0.25;;;18.10;76.60;;;;;;5011022;28;45347;-73
2023/01/13 03:39:44;;;;;;;0.50;0.20;;;18.10;76.60;;;;;;5005003;28;45647;-73
2023/01/13 03:42:16;;;;;;;1.05;0.30;;;18.10;76.60;;;;;;5004844;28;45329;-73
2023/01/13 03:44:46;;;;;;;2.53;0.30;;;18.10;76.50;;;;;;5012901;28;45288;-73
2023/01/13 03:47:20;;;;;;;2.70;0.30;;;18.10;76.20;;;;;;5004787;28;45374;-73
2023/01/13 03:49:53;;;;;;;2.17;0.50;;;18.10;76.00;;;;;;5001902;28;45526;-73
2023/01/13 03:52:25;;;;;;;2.35;0.50;;;18.10;75.70;;;;;;5016924;28;45323;-73
2023/01/13 03:54:55;;;;;;;0.98;0.40;;;18.10;75.60;;;;;;5000407;28;45366;-74
2023/01/13 03:57:26;;;;;;;1.60;0.40;;;18.10;75.60;;;;;;5008366;28;45343;-73
2023/01/13 03:59:57;;;;;;;0.80;0.20;;;18.00;75.60;;;;;;5005011;28;45311;-72
2023/01/13 04:02:36;;;;;;;2.60;0.45;;;18.00;75.70;;;;;;5004928;28;45511;-73
2023/01/13 04:05:07;;;;;;;0.77;0.32;;;18.10;77.10;;;;;;5004284;28;46278;-73
2023/01/13 04:07:43;;;;;;;0.50;0.30;;;18.00;75.70;;;;;;5004637;28;45282;-73
2023/01/13 04:10:11;;;;;;;0.98;0.30;;;18.00;75.70;;;;;;5005084;28;45268;-73
2023/01/13 04:13:01;;;;;;;2.17;0.55;;;18.00;75.80;;;;;;5015125;28;45226;-73
2023/01/13 04:15:30;;;;;;;1.52;0.75;;;18.00;75.80;;;;;;5006645;28;48039;-73
2023/01/13 04:18:11;;;;;;;0.70;0.30;;;18.00;75.60;;;;;;5004216;28;45339;-72
2023/01/13 04:20:39;;;;;;;0.77;0.30;;;18.00;75.90;;;;;;5011467;28;45326;-73
2023/01/13 04:23:06;;;;;;;2.05;0.60;;;18.00;75.90;;;;;;5005893;28;45299;-72
2023/01/13 04:25:33;;;;;;;2.63;0.38;;;18.00;75.90;;;;;;5003656;28;46611;-73
2023/01/13 04:28:00;;;;;;;1.35;0.45;;;18.00;76.00;;;;;;5009315;28;45441;-73
2023/01/13 04:30:27;;;;;;;1.17;0.40;;;18.00;75.70;;;;;;5006989;28;45292;-73
2023/01/13 04:32:55;;;;;;;1.10;0.43;;;18.10;75.80;;;;;;5004155;28;45585;-73
2023/01/13 04:35:23;;;;;;;1.88;0.65;;;18.00;75.60;;;;;;5003876;28;47407;-73
2023/01/13 04:37:50;;;;;;;1.42;0.40;;;18.10;75.20;;;;;;5000669;28;45389;-73
2023/01/13 04:40:17;;;;;;;2.17;0.40;;;18.00;75.20;;;;;;5008572;28;45327;-73
2023/01/13 04:42:44;;;;;;;1.15;0.50;;;18.00;75.30;;;;;;5004293;28;45337;-73
2023/01/13 04:45:11;;;;;;;1.05;0.40;;;18.00;74.60;;;;;;5003462;28;46433;-73
2023/01/13 04:47:39;;;;;;;1.45;0.32;;;18.00;74.40;;;;;;5003932;28;45369;-72
2023/01/13 04:50:06;;;;;;;1.05;0.32;;;18.00;74.50;;;;;;5005220;28;45586;-73
2023/01/13 04:52:34;;;;;;;3.63;0.93;;;18.00;74.40;;;;;;5012951;28;45471;-73
2023/01/13 04:55:01;;;;;;;0.95;0.30;;;18.00;74.40;;;;;;5003377;28;48836;-73
2023/01/13 04:57:28;;;;;;;1.60;0.52;;;18.00;74.30;;;;;;5011815;28;45753;-73
2023/01/13 04:59:55;;;;;;;1.58;0.52;;;18.00;74.40;;;;;;5003866;28;45310;-73
2023/01/13 05:02:22;;;;;;;1.67;0.52;;;18.00;74.00;;;;;;5004079;28;45331;-72
2023/01/13 05:04:49;;;;;;;5.15;0.63;;;18.00;74.20;;;;;;4994986;28;47176;-72
2023/01/13 05:07:17;;;;;;;0.85;0.50;;;18.00;73.60;;;;;;5002066;28;45339;-72
2023/01/13 05:09:45;;;;;;;2.63;0.60;;;17.90;73.20;;;;;;5011441;28;45215;-72
2023/01/13 05:17:40;;;;;;;3.63;0.80;;;17.90;71.70;;;;;;4970767;28;45510;-72
2023/01/13 05:20:08;;;;;;;1.38;0.77;;;17.90;70.00;;;;;;5004281;28;45448;-72
2023/01/13 05:25:24;;;;;;;2.33;0.80;;;17.90;68.90;;;;;;5006325;28;45746;-72
2023/01/13 05:27:52;;;;;;;2.42;0.70;;;17.90;68.50;;;;;;5011548;28;46131;-72
2023/01/13 05:30:20;;;;;;;2.60;0.70;;;17.90;68.40;;;;;;5003118;28;45393;-73
2023/01/13 05:32:47;;;;;;;1.38;0.50;;;17.90;69.70;;;;;;5005372;28;45271;-72
2023/01/13 05:35:15;;;;;;;2.83;0.90;;;17.80;71.00;;;;;;5006287;28;46364;-73
2023/01/13 05:37:42;;;;;;;2.88;0.70;;;17.80;70.70;;;;;;5014910;28;45472;-73
2023/01/13 05:43:23;;;;;;;3.00;0.80;;;17.80;68.90;;;;;;5011700;28;45335;-72
2023/01/13 05:45:53;;;;;;;2.38;0.65;;;17.80;69.30;;;;;;4991831;28;47547;-73
2023/01/13 05:48:22;;;;;;;2.53;0.63;;;17.80;69.00;;;;;;5007217;28;45128;-73
2023/01/13 05:50:50;;;;;;;3.22;0.70;;;17.80;69.40;;;;;;5005684;28;45594;-73
2023/01/13 05:53:17;;;;;;;3.08;0.80;;;17.70;68.90;;;;;;5019189;28;45412;-73
2023/01/13 05:55:44;;;;;;;3.80;0.77;;;17.70;69.20;;;;;;5007116;28;45350;-73
2023/01/13 05:58:15;;;;;;;2.85;0.77;;;17.80;71.00;;;;;;5006093;28;45461;-74
2023/01/13 06:00:41;;;;;;;2.97;0.68;;;17.80;70.30;;;;;;5016917;28;45432;-72
2023/01/13 06:03:09;;;;;;;3.78;0.90;;;17.70;70.50;;;;;;5026349;28;45259;-72
2023/01/13 06:05:35;;;;;;;3.33;0.80;;;17.80;70.70;;;;;;5014859;28;46383;-72
2023/01/13 06:08:04;;;;;;;2.88;0.85;;;17.70;71.00;;;;;;5005922;28;45670;-73
2023/01/13 06:10:31;;;;;;;2.30;0.63;;;17.80;71.70;;;;;;5012043;28;45337;-73
2023/01/13 06:12:59;;;;;;;2.72;0.75;;;17.80;71.70;;;;;;5017466;28;45335;-73
2023/01/13 06:15:27;;;;;;;2.72;0.60;;;17.80;71.60;;;;;;5007218;28;46582;-73
2023/01/13 06:17:55;;;;;;;5.15;1.65;;;17.80;71.80;;;;;;5006502;28;45353;-73
2023/01/13 06:20:22;;;;;;;3.10;0.65;;;17.90;71.80;;;;;;5006202;28;45420;-73
2023/01/13 06:22:51;;;;;;;2.72;0.80;;;17.90;71.80;;;;;;5006561;28;45223;-73
2023/01/13 06:25:24;;;;;;;2.78;0.80;;;17.90;72.10;;;;;;5007198;28;47316;-74
2023/01/13 06:27:51;;;;;;;1.95;0.68;;;17.90;72.10;;;;;;5004266;28;45428;-73
2023/01/13 06:30:18;;;;;;;2.45;0.75;;;17.90;72.20;;;;;;5006418;28;45324;-73
2023/01/13 06:32:51;;;;;;;2.03;0.60;;;17.90;72.30;;;;;;5017855;28;45511;-73
2023/01/13 06:35:23;;;;;;;1.40;0.60;;;17.90;72.40;;;;;;5010079;28;47311;-73
2023/01/13 06:37:52;;;;;;;1.88;0.60;;;17.90;72.50;;;;;;5003282;28;45302;-72
2023/01/13 06:40:20;;;;;;;2.30;0.68;;;17.90;72.50;;;;;;5016781;28;45401;-72
2023/01/13 06:45:31;;;;;;;1.42;0.60;;;17.80;72.10;;;;;;5013178;28;45380;-72
2023/01/13 06:48:00;;;;;;;2.10;0.50;;;17.80;72.10;;;;;;5022562;28;45587;-72
2023/01/13 06:50:27;;;;;;;1.58;0.57;;;17.80;71.90;;;;;;5013938;28;45327;-73
2023/01/13 06:52:54;;;;;;;1.85;0.50;;;17.80;72.10;;;;;;5012622;28;45397;-72
2023/01/13 06:55:21;;;;;;;1.60;0.63;;;17.80;71.50;;;;;;5006811;28;45584;-72
2023/01/13 06:57:49;;;;;;;2.03;0.70;;;17.80;71.60;;;;;;5012959;28;45302;-72
2023/01/13 07:00:16;;;;;;;3.42;0.73;;;17.80;71.50;;;;;;5004925;28;45307;-72
2023/01/13 07:02:43;;;;;;;1.80;0.80;;;17.80;71.30;;;;;;5015674;28;45277;-72
2023/01/13 07:05:12;;;;;;;3.10;0.82;;;17.70;71.60;;;;;;5012866;28;46569;-73
2023/01/13 07:07:39;;;;;;;2.70;0.65;;;17.80;71.40;;;;;;5006135;28;45718;-73
2023/01/13 07:10:08;;;;;;;2.05;0.63;;;17.80;71.20;;;;;;5005695;28;45302;-73
2023/01/13 07:15:17;;;;;;;3.45;0.70;;;17.80;71.00;;;;;;5013646;28;45266;-73
2023/01/13 07:15:22;;;;;;;2.97;0.77;;;17.80;70.70;;;;;;5005055;28;46660;-73
2023/01/13 07:17:49;;;;;;;1.08;0.40;;;17.80;70.60;;;;;;5021241;28;45314;-73
2023/01/13 07:20:18;;;;;;;2.88;0.50;;;17.80;70.30;;;;;;5004635;28;45426;-73
2023/01/13 07:22:45;;;;;;;1.92;0.60;;;17.80;70.20;;;;;;5014773;28;45390;-73
2023/01/13 07:25:12;;;;;;;1.67;0.57;;;17.90;70.10;;;;;;5012319;28;45586;-73
2023/01/13 07:27:38;;;;;;;2.00;0.47;;;17.80;70.00;;;;;;5005889;28;45391;-73
2023/01/13 07:30:06;;;;;;;2.08;0.60;;;17.90;69.80;;;;;;5017242;28;45401;-72
2023/01/13 07:32:34;;;;;;;5.40;0.70;;;17.90;69.40;;;;;;5009076;28;45387;-72
2023/01/13 07:35:04;;;;;;;2.10;0.77;;;17.80;69.20;;;;;;5003967;28;46448;-72
2023/01/13 07:37:34;;;;;;;3.50;0.70;;;17.80;69.30;;;;;;5012711;28;45379;-72
2023/01/13 07:40:01;;;;;;;2.33;0.50;;;17.80;69.10;;;;;;5004876;28;45358;-73
2023/01/13 07:45:12;;;;;;;2.85;0.77;;;17.80;68.90;;;;;;5006269;28;45413;-73
2023/01/13 07:47:39;;;;;;;1.88;0.55;;;17.80;68.70;;;;;;5006723;28;45265;-73
2023/01/13 07:50:07;;;;;;;5.43;1.17;;;17.80;68.80;;;;;;5011327;28;45237;-73
2023/01/13 07:52:35;;;;;;;2.15;0.50;;;17.70;68.60;;;;;;5013586;28;45346;-73
2023/01/13 07:55:02;;;;;;;2.42;0.50;;;17.80;68.60;;;;;;5004261;28;45666;-73
2023/01/13 07:57:30;;;;;;;2.95;0.55;;;17.80;68.90;;;;;;5013619;28;45277;-73
2023/01/13 07:59:56;;;;;;;2.40;0.80;;;17.80;69.00;;;;;;5016605;28;45525;-73
2023/01/13 08:02:23;;;;;;;3.10;0.95;;;17.80;69.20;;;;;;5016358;28;45290;-73
2023/01/13 08:04:50;;;;;;;1.60;0.65;;;17.80;69.20;;;;;;5015668;28;46327;-73
2023/01/13 08:07:17;;;;;;;2.97;0.60;;;17.80;69.40;;;;;;5007867;28;45910;-73
2023/01/13 08:09:45;;;;;;;2.53;0.70;;;17.90;70.40;;;;;;5006027;28;45302;-72
2023/01/13 08:14:56;;;;;;;2.17;0.63;;;17.90;69.60;;;;;;5007546;28;45250;-73
2023/01/13 08:17:23;;;;;;;1.65;0.60;;;17.90;69.50;;;;;;5006793;28;45337;-72
2023/01/13 08:19:50;;;;;;;2.50;0.52;;;17.90;69.60;;;;;;5011695;28;45289;-73
2023/01/13 08:22:17;;;;;;;1.05;0.50;;;17.90;69.80;;;;;;5014096;28;45242;-72
2023/01/13 08:24:45;;;;;;;1.13;0.50;;;17.90;69.70;;;;;;5012988;28;45490;-73
2023/01/13 08:27:12;;;;;;;2.65;0.65;;;17.90;69.80;;;;;;5004174;28;45196;-73
2023/01/13 08:29:39;;;;;;;2.15;0.60;;;17.90;70.10;;;;;;5007263;28;45303;-73
2023/01/13 08:32:06;;;;;;;2.60;0.50;;;17.90;70.00;;;;;;5016986;28;45402;-73
2023/01/13 08:34:33;;;;;;;1.60;0.65;;;17.90;70.00;;;;;;5012302;28;47312;-73
2023/01/13 08:37:00;;;;;;;3.72;0.80;;;17.90;70.20;;;;;;5008890;28;45458;-73
2023/01/13 08:39:27;;;;;;;0.70;0.40;;;17.90;70.10;;;;;;5012536;28;45306;-73
2023/01/13 08:41:55;;;;;;;1.83;0.73;;;17.80;69.80;;;;;;5005253;28;45463;-73
2023/01/13 08:44:22;;;;;;;2.42;0.82;;;17.80;69.80;;;;;;5021684;28;45336;-73
2023/01/13 08:46:49;;;;;;;2.78;0.73;;;17.80;69.30;;;;;;4995733;28;45430;-73
2023/01/13 08:49:17;;;;;;;0.68;0.30;;;17.80;69.40;;;;;;5004273;28;45291;-73
2023/01/13 08:51:44;;;;;;;1.95;0.60;;;17.80;69.60;;;;;;5012358;28;45324;-73
2023/01/13 08:54:11;;;;;;;2.67;0.70;;;17.80;69.00;;;;;;5018114;28;45362;-73
2023/01/13 08:56:38;;;;;;;2.80;0.75;;;17.80;69.40;;;;;;5010864;28;45987;-72
2023/01/13 08:59:08;;;;;;;2.92;0.70;;;17.80;69.30;;;;;;5018460;28;45258;-76
2023/01/13 09:01:38;;;;;;;1.70;0.65;;;17.90;69.40;;;;;;5005867;28;45338;-75
2023/01/13 09:04:05;;;;;;;3.95;0.68;;;17.90;71.90;;;;;;5009271;28;47505;-74
2023/01/13 09:06:32;;;;;;;1.10;0.40;;;18.00;71.60;;;;;;5016012;28;45285;-74
2023/01/13 09:08:58;;;;;;;1.92;0.60;;;18.10;71.10;;;;;;5008962;28;45088;-74
2023/01/13 09:14:22;;;;;;;2.65;1.00;;;18.10;70.90;;;;;;5029059;28;45847;-74
2023/01/13 09:16:49;;;;;;;2.78;0.77;;;18.10;70.70;;;;;;5029186;28;45368;-75
2023/01/13 09:19:16;;;;;;;4.85;0.75;;;18.20;70.30;;;;;;5028892;28;45321;-74
2023/01/13 09:21:43;;;;;;;2.42;1.00;;;18.20;70.00;;;;;;5025529;28;45767;-74
2023/01/13 09:24:10;;;;;;;2.38;0.80;;;18.20;69.70;;;;;;5016049;28;46398;-74
2023/01/13 09:26:37;;;;;;;2.38;0.80;;;18.30;69.50;;;;;;5007683;28;46359;-73
2023/01/13 09:29:05;;;;;;;3.17;1.10;;;18.30;69.40;;;;;;5002338;28;45394;-74
2023/01/13 09:31:34;;;;;;;2.20;0.77;;;18.30;69.50;;;;;;5005376;28;45374;-74
2023/01/13 09:36:46;;;;;;;2.75;1.00;;;18.30;69.40;;;;;;5008369;28;45179;-74
2023/01/13 09:39:13;;;;;;;3.17;0.73;;;18.30;69.20;;;;;;5008398;28;45376;-74
2023/01/13 09:44:37;;;;;;;3.30;1.02;;;18.30;69.10;;;;;;5008617;28;45858;-74
2023/01/13 09:47:13;;;;;;;4.78;0.60;;;18.30;69.30;;;;;;5008194;28;45164;-74
2023/01/13 09:49:42;;;;;;;4.03;0.80;;;18.30;69.10;;;;;;5008291;28;45215;-74
2023/01/13 09:52:13;;;;;;;2.22;0.75;;;18.30;69.00;;;;;;5008066;28;45392;-74
2023/01/13 09:54:43;;;;;;;2.20;0.68;;;18.30;69.20;;;;;;5007307;28;47947;-73
2023/01/13 09:57:11;;;;;;;4.15;0.73;;;18.30;69.20;;;;;;5008009;28;45246;-73
2023/01/13 09:59:38;;;;;;;4.13;0.73;;;18.30;69.20;;;;;;5007882;28;45239;-74
2023/01/13 10:02:29;;;;;;;1.65;0.80;;;18.30;69.20;;;;;;5008243;28;45322;-73
2023/01/13 10:05:05;;;;;;;4.25;1.00;;;18.30;69.30;;;;;;4988590;28;45279;-74
2023/01/13 10:07:35;;;;;;;2.22;0.77;;;18.30;69.40;;;;;;4997492;28;45191;-74
2023/01/13 10:10:03;;;;;;;1.52;0.63;;;18.30;69.30;;;;;;5027695;28;45387;-74
2023/01/13 10:15:17;;;;;;;3.30;0.70;;;18.30;69.30;;;;;;5004972;28;45731;-74
2023/01/13 10:17:50;;;;;;;4.25;1.00;;;18.30;69.40;;;;;;5007780;28;45139;-74
2023/01/13 10:20:23;;;;;;;2.95;0.75;;;18.30;69.50;;;;;;5007654;28;45224;-74
2023/01/13 10:23:00;;;;;;;2.42;0.80;;;18.30;69.60;;;;;;5008129;28;45551;-74
2023/01/13 10:25:45;;;;;;;1.88;0.75;;;18.30;69.30;;;;;;5007714;28;46447;-76
2023/01/13 10:28:13;;;;;;;2.55;0.80;;;18.30;69.80;;;;;;5007659;28;46226;-74
2023/01/13 10:30:43;;;;;;;4.68;1.02;;;18.30;69.60;;;;;;5022499;28;45243;-76
2023/01/13 10:33:13;;;;;;;4.72;1.15;;;18.30;69.40;;;;;;5027588;28;45501;-74
2023/01/13 10:35:52;;;;;;;3.83;0.98;;;18.20;69.50;;;;;;5027237;28;46286;-75
2023/01/13 10:38:20;;;;;;;5.18;0.88;;;18.20;69.80;;;;;;5027475;28;45489;-75
2023/01/13 10:40:49;;;;;;;6.65;1.17;;;18.20;70.00;;;;;;5025929;28;45188;-74
2023/01/13 10:43:16;;;;;;;4.53;1.00;;;18.20;69.90;;;;;;5023632;28;45512;-73
2023/01/13 10:45:51;;;;;;;4.15;1.08;;;18.20;70.00;;;;;;5006576;28;46491;-73
2023/01/13 10:48:19;;;;;;;2.88;0.70;;;18.20;70.00;;;;;;5005537;28;45444;-73
2023/01/13 10:50:48;;;;;;;1.88;0.82;;;18.20;69.80;;;;;;5025748;28;45441;-74
2023/01/13 10:53:22;;;;;;;5.65;0.82;;;18.20;70.00;;;;;;5019495;28;45272;-73
2023/01/13 10:55:59;;;;;;;2.10;0.95;;;18.20;70.10;;;;;;5006462;28;46867;-73
2023/01/13 10:58:27;;;;;;;2.30;0.80;;;18.20;69.80;;;;;;5014421;28;45420;-73
2023/01/13 11:01:02;;;;;;;3.90;1.00;;;18.20;69.60;;;;;;5014750;28;45323;-73
2023/01/13 11:03:40;;;;;;;3.47;0.88;;;18.30;69.90;;;;;;5006153;28;45469;-73
2023/01/13 11:06:08;;;;;;;3.30;1.15;;;18.30;69.60;;;;;;5006489;28;47268;-73
2023/01/13 11:08:44;;;;;;;3.25;0.82;;;18.30;70.00;;;;;;5014226;28;45360;-73
2023/01/13 11:11:27;;;;;;;3.72;1.10;;;18.30;70.00;;;;;;5006772;28;45355;-73
2023/01/13 11:16:46;;;;;;;4.78;0.80;;;18.20;69.90;;;;;;4998074;28;45271;-73
2023/01/13 11:19:18;;;;;;;3.05;0.77;;;18.30;69.60;;;;;;5006080;28;45307;-73
2023/01/13 11:21:53;;;;;;;2.45;1.15;;;18.20;69.50;;;;;;5005906;28;45395;-73
2023/01/13 11:24:27;;;;;;;4.90;1.17;;;18.20;69.60;;;;;;5006387;28;45351;-73
2023/01/13 11:26:59;;;;;;;4.80;1.10;;;18.20;70.10;;;;;;5006252;28;45437;-73
2023/01/13 11:29:36;;;;;;;3.55;0.95;;;18.20;69.50;;;;;;5005673;28;45942;-74
2023/01/13 11:32:10;;;;;;;2.80;0.80;;;18.20;69.60;;;;;;5018318;28;45413;-74
2023/01/13 11:34:41;;;;;;;4.00;1.23;;;18.20;70.10;;;;;;5016506;28;45239;-73
2023/01/13 11:37:14;;;;;;;4.20;0.98;;;18.20;69.90;;;;;;5005752;28;46547;-73
2023/01/13 11:39:49;;;;;;;3.38;0.98;;;18.20;70.30;;;;;;5008254;28;45939;-73
2023/01/13 11:42:23;;;;;;;5.22;0.90;;;18.20;69.90;;;;;;5010589;28;45259;-74
2023/01/13 11:45:04;;;;;;;4.57;1.25;;;18.20;69.80;;;;;;4983931;28;45239;-73
2023/01/13 11:47:32;;;;;;;3.95;0.93;;;18.20;70.20;;;;;;4986275;28;46739;-74
2023/01/13 11:50:01;;;;;;;2.75;0.95;;;18.20;70.10;;;;;;5005140;28;45260;-74
2023/01/13 11:52:35;;;;;;;4.57;1.02;;;18.10;70.10;;;;;;5006594;28;45144;-74
2023/01/13 11:55:19;;;;;;;2.70;0.98;;;18.10;71.00;;;;;;5006341;28;45617;-74
2023/01/13 11:58:17;;;;;;;4.53;1.35;;;18.10;69.70;;;;;;5005922;28;46683;-74
2023/01/13 12:01:09;;;;;;;3.95;1.05;;;18.10;69.40;;;;;;5006048;28;45417;-74
2023/01/13 12:03:41;;;;;;;4.70;1.13;;;18.20;69.70;;;;;;5006389;28;45216;-74
2023/01/13 12:06:19;;;;;;;6.03;1.33;;;18.20;69.70;;;;;;5006404;28;45576;-73
2023/01/13 12:09:10;;;;;;;2.80;0.98;;;18.20;69.50;;;;;;5005394;28;45495;-74
2023/01/13 12:14:33;;;;;;;3.75;1.05;;;18.20;69.90;;;;;;5024645;28;45405;-74
2023/01/13 12:17:02;;;;;;;3.30;1.15;;;18.10;69.80;;;;;;5010413;28;45444;-73
2023/01/13 12:19:31;;;;;;;3.97;1.13;;;18.10;69.90;;;;;;5005468;28;47877;-74
2023/01/13 12:22:07;;;;;;;2.40;0.70;;;18.10;69.90;;;;;;5005225;28;45409;-73
2023/01/13 12:24:40;;;;;;;3.97;1.20;;;18.10;70.00;;;;;;5005576;28;45354;-74
2023/01/13 12:27:14;;;;;;;1.55;0.77;;;18.10;70.00;;;;;;5005362;28;45484;-74
2023/01/13 12:29:40;;;;;;;3.08;0.95;;;18.10;69.90;;;;;;5005359;28;47948;-73
2023/01/13 12:32:12;;;;;;;2.00;0.70;;;18.10;69.80;;;;;;5005392;28;45283;-74
2023/01/13 12:34:52;;;;;;;3.17;0.80;;;18.10;69.60;;;;;;5022078;28;45348;-74
2023/01/13 12:37:26;;;;;;;2.05;0.82;;;18.10;70.70;;;;;;5005693;28;45223;-74
2023/01/13 12:40:05;;;;;;;5.85;1.30;;;18.10;69.80;;;;;;5009728;28;46493;-74
2023/01/13 12:45:27;;;;;;;2.85;0.93;;;18.10;69.80;;;;;;5002626;28;45396;-74
2023/01/13 12:47:54;;;;;;;5.22;0.95;;;18.10;69.40;;;;;;4997262;28;45221;-73
2023/01/13 12:50:42;;;;;;;3.88;0.98;;;18.10;69.40;;;;;;5012395;28;46284;-73
2023/01/13 12:53:37;;;;;;;4.93;1.20;;;18.20;70.30;;;;;;5004099;28;45413;-74
2023/01/13 12:56:40;;;;;;;5.10;1.20;;;18.20;69.40;;;;;;4990649;28;45370;-74
2023/01/13 12:59:33;;;;;;;3.42;0.82;;;18.10;69.20;;;;;;4999237;28;45522;-73
2023/01/13 13:02:28;;;;;;;4.32;1.08;;;18.10;69.40;;;;;;5004463;28;46632;-73
2023/01/13 13:04:57;;;;;;;1.98;0.70;;;18.20;69.40;;;;;;4955453;28;45211;-73
2023/01/13 13:07:34;;;;;;;1.52;0.80;;;18.20;69.50;;;;;;5003445;28;45200;-73
2023/01/13 13:10:15;;;;;;;2.75;0.90;;;18.10;69.70;;;;;;5000217;28;45541;-73
2023/01/13 13:15:39;;;;;;;5.05;1.10;;;18.10;70.20;;;;;;5001488;28;45472;-73
2023/01/13 13:18:27;;;;;;;4.00;1.20;;;18.00;69.60;;;;;;5009166;28;45365;-73
2023/01/13 13:21:03;;;;;;;4.40;0.90;;;18.00;69.90;;;;;;5019331;28;45413;-73
2023/01/13 13:24:02;;;;;;;2.65;0.60;;;18.00;70.00;;;;;;5011503;28;46449;-73
2023/01/13 13:26:45;;;;;;;3.05;0.80;;;18.00;70.10;;;;;;5003352;28;45406;-73
2023/01/13 13:29:33;;;;;;;2.50;0.70;;;18.10;70.30;;;;;;5011541;28;45511;-75
2023/01/13 13:32:27;;;;;;;3.90;1.10;;;18.00;70.30;;;;;;5010297;28;45316;-73
2023/01/13 13:35:05;;;;;;;5.13;1.30;;;18.00;70.30;;;;;;4996326;28;46540;-73
2023/01/13 13:46:46;;;;;;;1.98;0.73;;;18.10;70.30;;;;;;5004384;28;45544;-73
2023/01/13 13:49:13;;;;;;;6.47;1.00;;;18.10;70.10;;;;;;5005987;28;45394;-73
2023/01/13 13:51:45;;;;;;;2.50;0.85;;;18.10;70.10;;;;;;5012034;28;45345;-73
2023/01/13 13:54:14;;;;;;;2.15;0.93;;;18.10;70.10;;;;;;5006328;28;45424;-73
2023/01/13 13:56:45;;;;;;;2.65;0.77;;;18.10;69.90;;;;;;5023314;28;46981;-73
2023/01/13 13:59:17;;;;;;;2.05;0.82;;;18.10;70.10;;;;;;5006673;28;46410;-74
2023/01/13 14:01:46;;;;;;;3.00;0.98;;;18.10;69.90;;;;;;5004305;28;45316;-73
2023/01/13 14:04:17;;;;;;;3.88;0.93;;;18.10;70.10;;;;;;5007701;28;45171;-73
2023/01/13 14:06:52;;;;;;;2.20;0.85;;;18.10;69.60;;;;;;5009454;28;46810;-73
2023/01/13 14:09:20;;;;;;;2.58;1.00;;;18.10;70.40;;;;;;5010544;28;45505;-73
2023/01/13 14:11:58;;;;;;;3.47;0.88;;;18.10;70.40;;;;;;5015416;28;45314;-73